createdAt,value
2023-09-08T00:01:47.284Z,4.40
2023-09-08T00:04:14.113Z,4.78
2023-09-08T00:06:40.613Z,4.65
2023-09-08T00:09:07.571Z,4.63
2023-09-08T00:11:33.949Z,4.55
2023-09-08T00:14:00.401Z,4.88
2023-09-08T00:16:26.905Z,4.60
2023-09-08T00:18:53.928Z,4.43
2023-09-08T00:21:20.345Z,4.32
2023-09-08T00:23:47.048Z,4.45
2023-09-08T00:33:28.037Z,4.05
2023-09-08T00:35:54.691Z,4.70
2023-09-08T00:38:21.104Z,4.10
2023-09-08T00:40:47.619Z,4.72
2023-09-08T00:43:14.052Z,4.40
2023-09-08T00:45:43.416Z,4.70
2023-09-08T00:48:10.776Z,4.55
2023-09-08T00:50:38.046Z,4.60
2023-09-08T00:53:08.743Z,4.13
2023-09-08T00:55:35.990Z,4.28
2023-09-08T00:58:03.138Z,3.97
2023-09-08T01:00:29.729Z,4.43
2023-09-08T01:02:56.310Z,4.72
2023-09-08T01:05:22.775Z,4.50
2023-09-08T01:07:49.907Z,4.68
2023-09-08T01:10:16.737Z,4.78
2023-09-08T01:12:43.101Z,3.92
2023-09-08T01:15:09.984Z,3.95
2023-09-08T01:17:36.563Z,4.70
2023-09-08T01:20:08.477Z,3.80
2023-09-08T01:22:59.040Z,4.32
2023-09-08T01:25:26.424Z,4.60
2023-09-08T01:27:54.780Z,4.22
2023-09-08T01:30:22.734Z,4.32
2023-09-08T01:32:49.291Z,4.05
2023-09-08T01:35:16.388Z,4.32
2023-09-08T01:37:47.228Z,4.20
2023-09-08T01:40:14.379Z,4.38
2023-09-08T01:42:41.950Z,4.43
2023-09-08T01:45:09.250Z,4.63
2023-09-08T01:47:36.140Z,4.80
2023-09-08T01:50:02.754Z,4.22
2023-09-08T01:52:29.203Z,4.82
2023-09-08T01:54:55.654Z,4.90
2023-09-08T01:57:22.140Z,4.68
2023-09-08T01:59:49.187Z,4.50
2023-09-08T02:02:15.704Z,4.80
2023-09-08T02:04:42.422Z,4.35
2023-09-08T02:07:08.991Z,4.07
2023-09-08T02:09:36.782Z,4.28
2023-09-08T02:12:03.842Z,4.28
2023-09-08T02:14:30.735Z,4.13
2023-09-08T02:16:57.884Z,3.90
2023-09-08T02:19:24.632Z,4.70
2023-09-08T02:21:51.042Z,4.30
2023-09-08T02:24:17.501Z,4.30
2023-09-08T02:26:43.984Z,4.15
2023-09-08T02:29:10.384Z,4.63
2023-09-08T02:31:36.788Z,4.80
2023-09-08T02:34:04.131Z,5.38
2023-09-08T02:36:30.608Z,4.68
2023-09-08T02:38:57.652Z,4.78
2023-09-08T02:41:24.440Z,4.43
2023-09-08T02:43:50.974Z,4.30
2023-09-08T02:46:17.458Z,4.68
2023-09-08T02:48:43.861Z,4.40
2023-09-08T02:51:10.441Z,5.32
2023-09-08T02:53:36.874Z,4.10
2023-09-08T02:56:04.538Z,4.22
2023-09-08T02:58:31.588Z,4.35
2023-09-08T03:00:58.042Z,4.75
2023-09-08T03:03:24.498Z,4.47
2023-09-08T03:05:55.686Z,4.43
2023-09-08T03:08:23.993Z,4.05
2023-09-08T03:10:50.511Z,4.65
2023-09-08T03:13:16.906Z,4.68
2023-09-08T03:15:43.289Z,4.53
2023-09-08T03:18:09.704Z,4.10
2023-09-08T03:20:36.451Z,4.45
2023-09-08T03:23:02.867Z,4.57
2023-09-08T03:25:29.236Z,4.00
2023-09-08T03:27:55.672Z,4.55
2023-09-08T03:30:22.138Z,4.53
2023-09-08T03:32:48.758Z,4.53
2023-09-08T03:35:15.312Z,4.20
2023-09-08T03:37:41.712Z,4.72
2023-09-08T03:40:08.641Z,4.63
2023-09-08T03:42:35.960Z,4.80
2023-09-08T03:45:02.562Z,4.40
2023-09-08T03:47:29.158Z,5.47
2023-09-08T03:49:55.796Z,4.60
2023-09-08T03:52:22.348Z,5.22
2023-09-08T03:54:48.769Z,5.22
2023-09-08T03:57:15.140Z,4.68
2023-09-08T03:59:41.624Z,5.03
2023-09-08T04:02:08.072Z,4.97
2023-09-08T04:04:34.474Z,4.50
2023-09-08T04:07:01.002Z,4.53
2023-09-08T04:09:29.042Z,4.85
2023-09-08T04:11:56.176Z,5.00
2023-09-08T04:14:24.595Z,4.95
2023-09-08T04:16:51.179Z,4.90
2023-09-08T04:19:17.575Z,4.32
2023-09-08T04:21:44.015Z,4.60
2023-09-08T04:24:11.630Z,4.85
2023-09-08T04:26:38.317Z,5.10
2023-09-08T04:29:04.715Z,5.15
2023-09-08T04:31:31.144Z,5.22
2023-09-08T04:33:57.656Z,5.18
2023-09-08T04:36:24.419Z,4.93
2023-09-08T04:38:50.828Z,5.13
2023-09-08T04:41:17.217Z,4.82
2023-09-08T04:43:43.586Z,5.15
2023-09-08T04:46:10.045Z,5.20
2023-09-08T04:48:37.627Z,4.55
2023-09-08T04:51:06.542Z,4.70
2023-09-08T04:53:34.153Z,4.72
2023-09-08T04:56:00.727Z,4.90
2023-09-08T04:58:27.171Z,5.28
2023-09-08T05:00:53.660Z,5.07
2023-09-08T05:03:20.250Z,4.72
2023-09-08T05:05:46.845Z,5.13
2023-09-08T05:08:13.304Z,4.63
2023-09-08T05:10:39.738Z,5.50
2023-09-08T05:13:09.270Z,5.00
2023-09-08T05:18:09.930Z,4.93
2023-09-08T05:20:36.495Z,4.63
2023-09-08T05:23:02.931Z,4.90
2023-09-08T05:25:29.394Z,5.00
2023-09-08T05:27:55.801Z,5.03
2023-09-08T05:30:22.186Z,5.07
2023-09-08T05:32:48.675Z,4.60
2023-09-08T05:35:15.270Z,5.40
2023-09-08T05:37:41.686Z,5.07
2023-09-08T05:40:08.644Z,4.78
2023-09-08T05:42:35.060Z,4.97
2023-09-08T05:45:01.461Z,5.95
2023-09-08T05:47:27.868Z,4.97
2023-09-08T05:49:54.322Z,5.18
2023-09-08T05:52:20.821Z,6.30
2023-09-08T05:54:47.247Z,5.25
2023-09-08T05:57:13.640Z,5.55
2023-09-08T05:59:40.264Z,4.80
2023-09-08T06:02:07.079Z,5.72
2023-09-08T06:04:34.025Z,5.10
2023-09-08T06:07:00.750Z,5.20
2023-09-08T06:09:27.343Z,4.95
2023-09-08T06:11:53.761Z,4.90
2023-09-08T06:14:20.319Z,5.88
2023-09-08T06:16:47.195Z,4.55
2023-09-08T06:19:13.943Z,4.65
2023-09-08T06:21:40.410Z,5.10
2023-09-08T06:24:07.216Z,4.38
2023-09-08T06:26:33.669Z,5.60
2023-09-08T06:29:00.191Z,5.32
2023-09-08T06:31:26.744Z,5.07
2023-09-08T06:33:53.486Z,5.03
2023-09-08T06:36:20.161Z,4.55
2023-09-08T06:38:46.654Z,4.72
2023-09-08T06:41:13.307Z,5.38
2023-09-08T06:43:39.697Z,4.88
2023-09-08T06:46:06.305Z,4.50
2023-09-08T06:48:32.723Z,4.82
2023-09-08T06:50:59.945Z,4.88
2023-09-08T06:53:26.480Z,4.88
2023-09-08T06:55:53.311Z,4.57
2023-09-08T06:58:19.746Z,4.65
2023-09-08T07:00:46.261Z,5.05
2023-09-08T07:03:12.865Z,4.32
2023-09-08T07:05:42.222Z,4.95
2023-09-08T07:08:08.802Z,4.60
2023-09-08T07:10:35.248Z,4.72
2023-09-08T07:13:01.735Z,4.63
2023-09-08T07:15:28.186Z,4.65
2023-09-08T07:17:54.729Z,4.43
2023-09-08T07:20:21.452Z,4.40
2023-09-08T07:22:48.208Z,4.60
2023-09-08T07:25:14.759Z,4.18
2023-09-08T07:27:41.214Z,4.72
2023-09-08T07:30:08.195Z,4.20
2023-09-08T07:32:34.661Z,3.90
2023-09-08T07:35:01.184Z,4.45
2023-09-08T07:37:27.657Z,4.80
2023-09-08T07:39:54.125Z,4.70
2023-09-08T07:42:20.520Z,4.75
2023-09-08T07:44:46.923Z,4.72
2023-09-08T07:47:13.422Z,4.05
2023-09-08T07:49:39.832Z,4.20
2023-09-08T07:52:08.176Z,4.20
2023-09-08T07:54:34.626Z,4.60
2023-09-08T07:57:01.042Z,4.75
2023-09-08T07:59:27.563Z,4.90
2023-09-08T08:01:54.130Z,4.90
2023-09-08T08:04:20.733Z,4.25
2023-09-08T08:06:48.617Z,4.85
2023-09-08T08:09:15.716Z,4.72
2023-09-08T08:11:42.742Z,5.15
2023-09-08T08:14:09.192Z,4.50
2023-09-08T08:16:36.741Z,5.10
2023-09-08T08:19:04.334Z,4.53
2023-09-08T08:21:31.113Z,4.85
2023-09-08T08:23:57.667Z,4.72
2023-09-08T08:26:28.490Z,4.50
2023-09-08T08:28:54.949Z,4.57
2023-09-08T08:31:21.414Z,4.68
2023-09-08T08:33:47.954Z,4.90
2023-09-08T08:36:14.442Z,4.85
2023-09-08T08:38:40.919Z,4.63
2023-09-08T08:41:07.331Z,5.18
2023-09-08T08:43:33.990Z,4.88
2023-09-08T08:46:01.008Z,5.10
2023-09-08T08:48:28.597Z,4.50
2023-09-08T08:50:55.070Z,5.35
2023-09-08T08:53:22.422Z,5.32
2023-09-08T08:55:50.372Z,4.90
2023-09-08T08:58:21.853Z,5.10
2023-09-08T09:00:48.477Z,5.63
2023-09-08T09:03:16.205Z,4.85
2023-09-08T09:05:48.494Z,4.88
2023-09-08T09:08:17.314Z,5.13
2023-09-08T09:10:43.901Z,4.90
2023-09-08T09:13:10.337Z,5.53
2023-09-08T09:15:36.776Z,4.50
2023-09-08T09:18:07.454Z,5.10
2023-09-08T09:20:35.093Z,5.70
2023-09-08T09:23:01.691Z,4.65
2023-09-08T09:25:30.071Z,5.38
2023-09-08T09:27:58.535Z,4.75
2023-09-08T09:30:25.673Z,4.63
2023-09-08T09:33:06.068Z,4.88
2023-09-08T09:35:46.581Z,5.30
2023-09-08T09:38:14.736Z,4.93
2023-09-08T09:40:41.325Z,4.90
2023-09-08T09:43:08.390Z,5.35
2023-09-08T09:45:35.478Z,5.43
2023-09-08T09:48:05.138Z,4.95
2023-09-08T09:50:32.739Z,5.18
2023-09-08T09:53:02.546Z,5.05
2023-09-08T09:55:29.395Z,4.55
2023-09-08T09:58:00.055Z,4.82
2023-09-08T10:00:27.194Z,4.72
2023-09-08T10:02:55.599Z,5.18
2023-09-08T10:05:22.362Z,5.05
2023-09-08T10:07:49.543Z,4.43
2023-09-08T10:10:17.202Z,5.30
2023-09-08T10:12:46.237Z,4.65
2023-09-08T10:15:13.832Z,5.47
2023-09-08T10:17:42.119Z,5.32
2023-09-08T10:20:12.423Z,5.07
2023-09-08T10:22:43.842Z,5.75
2023-09-08T10:25:11.073Z,5.13
2023-09-08T10:27:38.158Z,5.20
2023-09-08T10:30:06.339Z,5.65
2023-09-08T10:32:34.691Z,5.93
2023-09-08T10:35:01.942Z,5.60
2023-09-08T10:37:31.272Z,5.03
2023-09-08T10:40:28.434Z,5.00
2023-09-08T10:43:08.269Z,4.35
2023-09-08T10:45:35.055Z,4.80
2023-09-08T10:48:01.855Z,4.80
2023-09-08T10:50:32.751Z,4.70
2023-09-08T10:53:13.672Z,4.80
2023-09-08T10:55:51.902Z,4.97
2023-09-08T10:58:39.484Z,5.32
2023-09-08T11:01:06.448Z,5.68
2023-09-08T11:03:38.737Z,4.68
2023-09-08T11:06:06.337Z,4.60
2023-09-08T11:08:34.601Z,4.55
2023-09-08T11:11:01.994Z,4.90
2023-09-08T11:13:31.784Z,4.50
2023-09-08T11:15:58.236Z,4.53
2023-09-08T11:18:31.289Z,4.80
2023-09-08T11:20:58.532Z,4.65
2023-09-08T11:23:25.486Z,4.47
2023-09-08T11:25:52.541Z,4.85
2023-09-08T11:28:19.407Z,4.68
2023-09-08T11:30:50.085Z,5.05
2023-09-08T11:33:25.808Z,4.60
2023-09-08T11:35:55.466Z,4.30
2023-09-08T11:38:27.669Z,4.30
2023-09-08T11:40:55.106Z,4.80
2023-09-08T11:43:22.705Z,4.78
2023-09-08T11:45:52.183Z,4.78
2023-09-08T11:48:18.729Z,4.80
2023-09-08T11:50:45.797Z,4.32
2023-09-08T11:53:13.042Z,4.53
2023-09-08T11:55:39.806Z,4.40
2023-09-08T11:58:06.674Z,5.03
2023-09-08T12:00:33.923Z,3.92
2023-09-08T12:03:13.708Z,4.30
2023-09-08T12:05:40.692Z,4.70
2023-09-08T12:08:07.206Z,4.65
2023-09-08T12:10:43.215Z,4.65
2023-09-08T12:13:10.575Z,4.20
2023-09-08T12:15:37.605Z,4.97
2023-09-08T12:18:08.981Z,5.07
2023-09-08T12:20:36.435Z,4.50
2023-09-08T12:23:05.071Z,5.10
2023-09-08T12:25:38.391Z,4.40
2023-09-08T12:28:05.605Z,4.35
2023-09-08T12:30:33.991Z,5.53
2023-09-08T12:33:02.558Z,5.22
2023-09-08T12:35:32.426Z,5.10
2023-09-08T12:38:02.190Z,4.40
2023-09-08T12:40:29.742Z,4.28
2023-09-08T12:42:58.641Z,4.63
2023-09-08T12:45:33.104Z,4.93
2023-09-08T12:48:02.536Z,4.60
2023-09-08T12:50:30.813Z,4.65
2023-09-08T12:52:58.133Z,4.70
2023-09-08T12:55:32.273Z,4.32
2023-09-08T12:57:58.749Z,4.28
2023-09-08T13:00:26.354Z,4.20
2023-09-08T13:02:53.211Z,4.60
2023-09-08T13:05:19.768Z,4.72
2023-09-08T13:07:46.209Z,4.32
2023-09-08T13:10:12.723Z,4.63
2023-09-08T13:12:39.650Z,4.15
2023-09-08T13:15:06.715Z,4.30
2023-09-08T13:17:33.175Z,4.55
2023-09-08T13:19:59.675Z,4.40
2023-09-08T13:22:26.459Z,4.85
2023-09-08T13:24:52.936Z,4.28
2023-09-08T13:27:19.906Z,4.43
2023-09-08T13:29:46.421Z,4.97
2023-09-08T13:32:12.959Z,4.40
2023-09-08T13:34:39.756Z,4.22
2023-09-08T13:37:06.829Z,4.85
2023-09-08T13:39:33.416Z,4.28
2023-09-08T13:42:01.667Z,4.57
2023-09-08T13:44:28.398Z,4.53
2023-09-08T13:46:55.938Z,4.05
2023-09-08T13:49:24.032Z,4.50
2023-09-08T13:51:53.513Z,4.65
2023-09-08T13:54:24.817Z,4.72
2023-09-08T13:57:01.599Z,3.83
2023-09-08T13:59:30.281Z,4.30
2023-09-08T14:02:32.830Z,4.40
2023-09-08T14:04:49.711Z,4.22
2023-09-08T14:09:54.709Z,5.10
2023-09-08T14:14:50.003Z,4.72
2023-09-08T14:17:16.450Z,4.22
2023-09-08T14:19:43.013Z,4.50
2023-09-08T14:22:09.528Z,4.45
2023-09-08T14:24:36.022Z,4.80
2023-09-08T14:27:02.457Z,4.68
2023-09-08T14:29:28.906Z,4.50
2023-09-08T14:31:55.363Z,4.18
2023-09-08T14:34:21.778Z,4.10
2023-09-08T14:36:49.377Z,4.22
2023-09-08T14:39:16.272Z,4.28
2023-09-08T14:41:42.677Z,4.13
2023-09-08T14:44:09.179Z,4.20
2023-09-08T14:46:35.597Z,4.32
2023-09-08T14:49:02.092Z,4.15
2023-09-08T14:51:28.928Z,4.13
2023-09-08T14:53:55.414Z,3.88
2023-09-08T14:56:21.889Z,4.65
2023-09-08T14:58:48.553Z,4.47
2023-09-08T15:01:15.095Z,4.47
2023-09-08T15:03:42.444Z,4.78
2023-09-08T15:06:10.133Z,4.05
2023-09-08T15:08:36.511Z,3.92
2023-09-08T15:11:03.521Z,3.78
2023-09-08T15:13:30.019Z,4.18
2023-09-08T15:15:58.825Z,4.22
2023-09-08T15:18:26.944Z,3.60
2023-09-08T15:20:54.507Z,3.95
2023-09-08T15:23:21.308Z,4.40
2023-09-08T15:25:54.704Z,4.32
2023-09-08T15:28:21.443Z,4.95
2023-09-08T15:30:52.496Z,4.00
2023-09-08T15:33:21.201Z,4.05
2023-09-08T15:35:47.821Z,3.63
2023-09-08T15:38:15.128Z,4.70
2023-09-08T15:41:11.723Z,3.75
2023-09-08T15:43:40.089Z,3.67
2023-09-08T15:46:06.837Z,4.40
2023-09-08T15:48:37.428Z,4.07
2023-09-08T15:51:04.465Z,4.65
2023-09-08T15:53:31.940Z,4.50
2023-09-08T15:55:58.721Z,4.50
2023-09-08T15:58:25.264Z,4.57
2023-09-08T16:00:51.795Z,4.35
2023-09-08T16:03:18.302Z,3.85
2023-09-08T16:05:44.778Z,4.70
2023-09-08T16:08:11.223Z,4.13
2023-09-08T16:10:37.662Z,4.18
2023-09-08T16:13:04.401Z,3.70
2023-09-08T16:15:30.886Z,4.28
2023-09-08T16:17:58.419Z,3.95
2023-09-08T16:20:25.017Z,4.18
2023-09-08T16:22:51.452Z,3.65
2023-09-08T16:25:18.104Z,4.20
2023-09-08T16:27:46.248Z,4.00
2023-09-08T16:30:13.313Z,4.20
2023-09-08T16:32:40.780Z,4.53
2023-09-08T16:35:07.817Z,4.22
2023-09-08T16:37:34.431Z,4.40
2023-09-08T16:40:00.846Z,4.85
2023-09-08T16:42:27.430Z,4.40
2023-09-08T16:44:53.926Z,4.68
2023-09-08T16:47:21.541Z,4.90
2023-09-08T16:49:47.986Z,4.20
2023-09-08T16:52:14.450Z,4.45
2023-09-08T16:54:40.845Z,4.90
2023-09-08T16:57:07.296Z,4.00
2023-09-08T16:59:33.781Z,4.47
2023-09-08T17:02:00.247Z,4.20
2023-09-08T17:04:28.013Z,4.00
2023-09-08T17:06:54.499Z,3.72
2023-09-08T17:09:20.907Z,4.28
2023-09-08T17:11:47.750Z,3.53
2023-09-08T17:14:14.196Z,4.00
2023-09-08T17:16:40.724Z,3.85
2023-09-08T17:19:07.245Z,3.92
2023-09-08T17:21:33.677Z,4.05
2023-09-08T17:24:00.126Z,4.18
2023-09-08T17:26:26.577Z,3.72
2023-09-08T17:28:53.092Z,4.18
2023-09-08T17:31:19.517Z,4.07
2023-09-08T17:33:46.091Z,4.63
2023-09-08T17:36:12.543Z,3.88
2023-09-08T17:38:39.041Z,4.25
2023-09-08T17:41:05.433Z,4.22
2023-09-08T17:43:31.920Z,4.20
2023-09-08T17:46:04.043Z,4.60
2023-09-08T17:48:31.435Z,4.38
2023-09-08T17:50:57.908Z,4.30
2023-09-08T17:53:24.364Z,4.35
2023-09-08T17:55:50.799Z,4.13
2023-09-08T17:58:17.203Z,4.07
2023-09-08T18:00:43.795Z,3.60
2023-09-08T18:03:12.152Z,4.85
2023-09-08T18:05:39.973Z,3.88
2023-09-08T18:08:06.550Z,4.15
2023-09-08T18:10:32.984Z,4.75
2023-09-08T18:13:00.568Z,4.72
2023-09-08T18:15:27.058Z,4.28
2023-09-08T18:17:53.520Z,3.90
2023-09-08T18:20:19.974Z,3.88
2023-09-08T18:22:46.413Z,4.35
2023-09-08T18:25:12.863Z,4.00
2023-09-08T18:27:39.362Z,4.95
2023-09-08T18:30:06.683Z,4.72
2023-09-08T18:32:34.668Z,4.45
2023-09-08T18:35:01.132Z,4.88
2023-09-08T18:37:27.605Z,4.65
2023-09-08T18:39:54.507Z,5.07
2023-09-08T18:42:20.904Z,4.25
2023-09-08T18:44:47.293Z,4.70
2023-09-08T18:47:13.758Z,4.53
2023-09-08T18:49:40.322Z,4.30
2023-09-08T18:52:06.739Z,4.95
2023-09-08T18:54:33.274Z,4.65
2023-09-08T18:56:59.894Z,4.82
2023-09-08T18:59:26.522Z,5.20
2023-09-08T19:01:54.534Z,4.75
2023-09-08T19:04:20.998Z,6.07
2023-09-08T19:06:47.477Z,6.60
2023-09-08T19:09:13.866Z,6.75
2023-09-08T19:11:40.374Z,7.05
2023-09-08T19:14:06.845Z,7.07
2023-09-08T19:16:33.735Z,6.45
2023-09-08T19:19:00.276Z,6.70
2023-09-08T19:21:26.719Z,6.72
2023-09-08T19:23:53.242Z,6.80
2023-09-08T19:26:19.650Z,6.75
2023-09-08T19:28:46.416Z,7.40
2023-09-08T19:31:12.873Z,7.70
2023-09-08T19:33:39.674Z,8.35
2023-09-08T19:36:06.335Z,7.93
2023-09-08T19:38:33.149Z,7.30
2023-09-08T19:41:03.576Z,7.72
2023-09-08T19:43:31.096Z,7.32
2023-09-08T19:46:07.438Z,7.13
2023-09-08T19:48:35.214Z,6.95
2023-09-08T19:51:02.198Z,6.95
2023-09-08T19:53:28.658Z,6.43
2023-09-08T19:55:56.838Z,6.78
2023-09-08T19:58:25.687Z,6.82
2023-09-08T20:00:52.167Z,7.35
2023-09-08T20:03:18.825Z,6.68
2023-09-08T20:05:45.910Z,6.88
2023-09-08T20:08:12.686Z,7.22
2023-09-08T20:10:39.604Z,6.38
2023-09-08T20:13:06.122Z,6.50
2023-09-08T20:15:33.699Z,6.63
2023-09-08T20:18:00.514Z,6.55
2023-09-08T20:20:27.080Z,6.38
2023-09-08T20:22:53.592Z,7.70
2023-09-08T20:25:20.044Z,7.05
2023-09-08T20:27:48.509Z,6.90
2023-09-08T20:30:15.293Z,6.38
2023-09-08T20:32:41.767Z,6.15
2023-09-08T20:35:09.718Z,6.63
2023-09-08T20:37:36.125Z,5.88
2023-09-08T20:40:02.529Z,5.50
2023-09-08T20:42:28.956Z,5.95
2023-09-08T20:44:55.431Z,5.80
2023-09-08T20:47:21.875Z,6.22
2023-09-08T20:49:48.301Z,5.95
2023-09-08T20:52:15.199Z,6.05
2023-09-08T20:54:47.889Z,5.63
2023-09-08T20:57:14.310Z,5.70
2023-09-08T20:59:40.695Z,5.18
2023-09-08T21:02:08.812Z,5.20
2023-09-08T21:04:35.235Z,5.95
2023-09-08T21:07:01.619Z,6.38
2023-09-08T21:09:28.102Z,6.20
2023-09-08T21:11:54.639Z,6.22
2023-09-08T21:14:21.254Z,6.07
2023-09-08T21:16:47.659Z,5.88
2023-09-08T21:19:15.078Z,6.18
2023-09-08T21:21:41.543Z,6.03
2023-09-08T21:24:08.131Z,5.75
2023-09-08T21:26:34.572Z,6.40
2023-09-08T21:29:01.085Z,5.63
2023-09-08T21:31:27.548Z,4.80
2023-09-08T21:33:54.131Z,5.10
2023-09-08T21:36:20.705Z,5.40
2023-09-08T21:38:47.168Z,5.30
2023-09-08T21:41:13.637Z,5.20
2023-09-08T21:43:40.268Z,5.43
2023-09-08T21:46:08.544Z,5.70
2023-09-08T21:48:38.137Z,5.28
2023-09-08T21:51:05.664Z,5.13
2023-09-08T21:53:32.161Z,5.28
2023-09-08T21:55:58.549Z,5.07
2023-09-08T21:58:25.055Z,4.90
2023-09-08T22:00:51.454Z,4.82
2023-09-08T22:03:18.052Z,4.70
2023-09-08T22:05:44.778Z,5.55
2023-09-08T22:08:11.258Z,5.53
2023-09-08T22:10:37.698Z,5.18
2023-09-08T22:13:04.241Z,5.32
2023-09-08T22:15:30.693Z,5.50
2023-09-08T22:17:57.191Z,5.40
2023-09-08T22:20:24.797Z,5.85
2023-09-08T22:22:51.304Z,5.32
2023-09-08T22:25:17.816Z,5.90
2023-09-08T22:27:44.363Z,5.75
2023-09-08T22:30:11.912Z,5.22
2023-09-08T22:32:38.601Z,5.80
2023-09-08T22:35:05.914Z,5.80
2023-09-08T22:37:32.958Z,5.95
2023-09-08T22:39:59.408Z,6.30
2023-09-08T22:42:26.567Z,6.28
2023-09-08T22:44:53.059Z,5.82
2023-09-08T22:47:19.493Z,5.70
2023-09-08T22:49:56.233Z,6.20
2023-09-08T22:52:22.774Z,6.50
2023-09-08T22:54:49.289Z,5.82
2023-09-08T22:57:15.754Z,6.25
2023-09-08T22:59:42.169Z,6.00
2023-09-08T23:02:08.657Z,5.97
2023-09-08T23:04:35.894Z,5.60
2023-09-08T23:07:02.756Z,6.60
2023-09-08T23:09:29.558Z,5.35
2023-09-08T23:11:57.387Z,6.47
2023-09-08T23:14:23.944Z,6.22
2023-09-08T23:16:50.362Z,5.50
2023-09-08T23:19:16.779Z,5.32
2023-09-08T23:21:43.236Z,5.55
2023-09-08T23:24:09.691Z,5.95
2023-09-08T23:26:36.140Z,5.93
2023-09-08T23:29:02.676Z,5.45
2023-09-08T23:31:29.528Z,6.13
2023-09-08T23:33:56.119Z,5.70
2023-09-08T23:36:23.581Z,5.50
2023-09-08T23:38:49.943Z,5.40
2023-09-08T23:41:16.523Z,4.75
2023-09-08T23:43:42.995Z,5.03
2023-09-08T23:46:09.535Z,5.22
2023-09-08T23:48:35.939Z,5.20
2023-09-08T23:51:02.393Z,5.55
2023-09-08T23:53:29.906Z,5.55
2023-09-08T23:55:56.573Z,5.05
2023-09-08T23:58:23.095Z,5.00
